Time;durP1;ratioP1;P1;durP2;ratioP2;P2;SDS_P1;SDS_P2;PMS_P1;PMS_P2;Temp;Humidity;BMP_temperature;BMP_pressure;BME280_temperature;BME280_humidity;BME280_pressure;Samples;Min_cycle;Max_cycle;Signal;HPM_P1;HPM_P2
2024/01/11 00:01:56;;;;;;;55.90;30.00;;;-2.10;95.90;;;;;;5074483;28;20449;-59
2024/01/11 00:04:24;;;;;;;43.27;28.10;;;-2.10;96.00;;;;;;5074401;28;20445;-60
2024/01/11 00:06:52;;;;;;;47.67;29.03;;;-2.10;96.10;;;;;;5074469;28;20496;-59
2024/01/11 00:09:18;;;;;;;45.57;27.50;;;-2.10;96.10;;;;;;5074232;28;20460;-59
2024/01/11 00:11:45;;;;;;;40.40;24.33;;;-2.20;96.10;;;;;;5074501;28;20449;-60
2024/01/11 00:14:12;;;;;;;43.63;24.27;;;-2.20;96.20;;;;;;5074220;28;20484;-60
2024/01/11 00:16:39;;;;;;;38.27;23.00;;;-2.20;96.30;;;;;;5074335;28;20433;-60
2024/01/11 00:19:05;;;;;;;41.53;24.60;;;-2.30;96.30;;;;;;5074539;28;20871;-60
2024/01/11 00:21:33;;;;;;;37.60;23.70;;;-2.30;96.30;;;;;;5074223;28;20451;-61
2024/01/11 00:24:00;;;;;;;38.13;23.63;;;-2.30;96.30;;;;;;5074182;28;20527;-61
2024/01/11 00:26:27;;;;;;;37.43;22.60;;;-2.30;96.20;;;;;;5073997;28;20459;-60
2024/01/11 00:28:53;;;;;;;37.97;22.50;;;-2.30;96.30;;;;;;5073959;28;20465;-60
2024/01/11 00:31:20;;;;;;;42.17;24.87;;;-2.30;96.70;;;;;;5073676;28;20436;-60
2024/01/11 00:33:47;;;;;;;47.73;26.40;;;-2.30;96.40;;;;;;5073563;28;20448;-60
2024/01/11 00:36:19;;;;;;;41.37;23.80;;;-2.30;96.60;;;;;;5073426;28;20866;-60
2024/01/11 00:38:47;;;;;;;43.43;23.00;;;-2.30;96.60;;;;;;5073618;28;20534;-60
2024/01/11 00:41:14;;;;;;;42.90;22.80;;;-2.30;96.70;;;;;;5073546;28;20849;-60
2024/01/11 00:43:41;;;;;;;40.07;22.53;;;-2.30;96.70;;;;;;5073827;28;20453;-61
2024/01/11 00:46:07;;;;;;;43.10;22.80;;;-2.20;96.80;;;;;;5073854;28;20444;-60
2024/01/11 00:48:34;;;;;;;44.83;22.90;;;-2.30;96.70;;;;;;5073677;28;20460;-60
2024/01/11 00:51:01;;;;;;;37.17;22.30;;;-2.30;96.70;;;;;;5074212;28;20811;-60
2024/01/11 00:53:30;;;;;;;42.10;22.77;;;-2.30;96.70;;;;;;5073694;28;20441;-61
2024/01/11 00:55:58;;;;;;;42.13;23.80;;;-2.30;96.70;;;;;;5073356;28;20480;-60
2024/01/11 00:58:25;;;;;;;37.20;20.43;;;-2.30;96.70;;;;;;5072608;28;20986;-60
2024/01/11 01:00:52;;;;;;;38.70;24.10;;;-2.30;96.70;;;;;;5073402;28;20440;-61
2024/01/11 01:03:19;;;;;;;40.00;21.97;;;-2.30;96.80;;;;;;5073515;28;20476;-60
2024/01/11 01:05:46;;;;;;;38.07;22.03;;;-2.30;97.20;;;;;;5073209;28;20429;-60
2024/01/11 01:08:12;;;;;;;34.17;21.67;;;-2.30;96.90;;;;;;5073414;28;20460;-60
2024/01/11 01:10:39;;;;;;;39.33;22.90;;;-2.30;96.90;;;;;;5073116;28;20440;-60
2024/01/11 01:13:07;;;;;;;34.50;21.40;;;-2.40;96.90;;;;;;5073334;28;20814;-60
2024/01/11 01:15:34;;;;;;;35.70;21.50;;;-2.40;96.90;;;;;;5073201;28;20473;-60
2024/01/11 01:18:01;;;;;;;35.67;20.60;;;-2.30;96.90;;;;;;5073186;28;20484;-60
2024/01/11 01:20:28;;;;;;;33.90;20.83;;;-2.30;97.00;;;;;;5073228;28;20449;-60
2024/01/11 01:22:55;;;;;;;35.00;19.87;;;-2.40;96.80;;;;;;5072951;28;20939;-60
2024/01/11 01:25:21;;;;;;;32.17;20.30;;;-2.40;96.90;;;;;;5072961;28;20474;-59
2024/01/11 01:27:49;;;;;;;35.00;20.10;;;-2.30;97.00;;;;;;5073126;28;20437;-59
2024/01/11 01:30:17;;;;;;;29.17;18.33;;;-2.40;96.90;;;;;;5073260;28;20498;-60
2024/01/11 01:32:44;;;;;;;36.20;21.33;;;-2.40;96.90;;;;;;5072775;28;20444;-60
2024/01/11 01:35:10;;;;;;;41.20;22.87;;;-2.40;96.90;;;;;;5072750;28;20492;-60
2024/01/11 01:37:37;;;;;;;40.03;20.80;;;-2.40;96.90;;;;;;5073125;28;20919;-60
2024/01/11 01:40:05;;;;;;;42.17;21.17;;;-2.40;96.80;;;;;;5073380;28;20467;-60
2024/01/11 01:42:32;;;;;;;34.40;21.33;;;-2.50;96.70;;;;;;5073464;28;20846;-60
2024/01/11 01:44:58;;;;;;;33.10;19.37;;;-2.40;96.80;;;;;;5072819;28;20451;-60
2024/01/11 01:47:27;;;;;;;30.43;19.13;;;-2.50;96.70;;;;;;5073174;28;20441;-60
2024/01/11 01:49:55;;;;;;;34.53;21.33;;;-2.50;96.80;;;;;;5073179;28;20461;-60
2024/01/11 01:52:22;;;;;;;36.47;20.97;;;-2.50;96.80;;;;;;5073106;28;20449;-60
2024/01/11 01:54:50;;;;;;;35.03;19.07;;;-2.50;96.80;;;;;;5072931;28;20491;-60
2024/01/11 01:57:19;;;;;;;33.80;21.33;;;-2.50;96.80;;;;;;5072959;28;20819;-60
2024/01/11 01:59:46;;;;;;;34.83;19.97;;;-2.50;96.80;;;;;;5072944;28;20831;-60
2024/01/11 02:02:13;;;;;;;36.53;20.00;;;-2.50;96.80;;;;;;5073023;28;20440;-60
2024/01/11 02:04:41;;;;;;;32.23;18.97;;;-2.60;96.70;;;;;;5072892;28;20451;-60
2024/01/11 02:07:09;;;;;;;31.03;19.50;;;-2.60;96.70;;;;;;5076638;28;20448;-60
2024/01/11 02:09:37;;;;;;;37.27;20.60;;;-2.60;96.80;;;;;;5076696;28;20464;-59
2024/01/11 02:12:06;;;;;;;36.07;21.77;;;-2.60;96.90;;;;;;5076661;28;20444;-60
2024/01/11 02:14:32;;;;;;;31.90;20.33;;;-2.60;97.00;;;;;;5076713;28;20446;-60
2024/01/11 02:16:59;;;;;;;37.30;21.67;;;-2.60;96.90;;;;;;5076651;28;20440;-60
2024/01/11 02:19:26;;;;;;;32.30;19.63;;;-2.60;96.90;;;;;;5076440;28;20464;-59
2024/01/11 02:21:56;;;;;;;31.13;19.03;;;-2.60;96.90;;;;;;5076639;28;20444;-60
2024/01/11 02:24:24;;;;;;;33.37;19.13;;;-2.70;96.90;;;;;;5076146;28;20808;-60
2024/01/11 02:27:01;;;;;;;32.80;19.27;;;-2.70;97.10;;;;;;5076615;28;20437;-60
2024/01/11 02:29:28;;;;;;;34.97;20.30;;;-2.60;97.20;;;;;;5076035;28;20981;-60
2024/01/11 02:31:55;;;;;;;34.20;20.67;;;-2.70;97.20;;;;;;5076075;28;20452;-60
2024/01/11 02:34:23;;;;;;;32.20;19.33;;;-2.70;97.20;;;;;;5076339;28;20443;-59
2024/01/11 02:36:50;;;;;;;35.40;20.50;;;-2.70;97.20;;;;;;5075719;28;20487;-59
2024/01/11 02:39:19;;;;;;;34.07;19.00;;;-2.70;97.20;;;;;;5076181;28;20464;-60
2024/01/11 02:41:50;;;;;;;34.37;21.20;;;-2.70;97.20;;;;;;5076346;28;20445;-59
2024/01/11 02:44:17;;;;;;;38.20;21.60;;;-2.70;97.30;;;;;;5076135;28;20445;-60
2024/01/11 02:46:44;;;;;;;35.80;21.90;;;-2.70;97.40;;;;;;5076002;28;20436;-59
2024/01/11 02:49:10;;;;;;;35.67;19.20;;;-2.70;97.30;;;;;;5076120;28;20487;-60
2024/01/11 02:51:37;;;;;;;41.60;21.00;;;-2.70;97.30;;;;;;5075992;28;20445;-59
2024/01/11 02:54:04;;;;;;;32.70;20.80;;;-2.80;97.30;;;;;;5075911;28;20433;-60
2024/01/11 02:56:30;;;;;;;30.93;19.53;;;-2.80;97.40;;;;;;5075867;28;20503;-59
2024/01/11 02:58:58;;;;;;;37.97;21.97;;;-2.80;97.50;;;;;;5075743;28;20493;-59
2024/01/11 03:01:25;;;;;;;41.17;20.50;;;-2.80;97.40;;;;;;5075698;28;20437;-59
2024/01/11 03:03:53;;;;;;;35.77;20.97;;;-2.80;97.40;;;;;;5075733;28;20467;-59
2024/01/11 03:06:21;;;;;;;39.40;21.60;;;-2.80;97.50;;;;;;5075706;28;20539;-59
2024/01/11 03:08:48;;;;;;;38.10;21.43;;;-2.80;97.60;;;;;;5075681;28;20560;-60
2024/01/11 03:11:14;;;;;;;39.93;21.70;;;-2.80;97.70;;;;;;5075622;28;20445;-59
2024/01/11 03:13:41;;;;;;;40.27;21.20;;;-2.80;97.70;;;;;;5075638;28;20930;-59
2024/01/11 03:16:09;;;;;;;35.57;21.00;;;-2.80;97.60;;;;;;5074940;28;20857;-59
2024/01/11 03:18:36;;;;;;;37.83;20.90;;;-2.80;97.50;;;;;;5074741;28;20463;-60
2024/01/11 03:21:03;;;;;;;37.07;20.00;;;-2.80;97.40;;;;;;5075312;28;20444;-59
2024/01/11 03:23:30;;;;;;;35.63;21.37;;;-2.90;97.30;;;;;;5075346;28;20448;-60
2024/01/11 03:25:57;;;;;;;40.37;20.13;;;-2.80;97.30;;;;;;5075234;28;20437;-59
2024/01/11 03:28:23;;;;;;;39.13;20.83;;;-2.90;97.30;;;;;;5075310;28;20461;-60
2024/01/11 03:30:50;;;;;;;32.43;18.90;;;-2.90;97.30;;;;;;5075299;28;20458;-59
2024/01/11 03:33:18;;;;;;;28.43;19.30;;;-2.80;97.40;;;;;;5075221;28;20441;-60
2024/01/11 03:35:45;;;;;;;30.97;19.80;;;-2.80;97.40;;;;;;5074819;28;20858;-59
2024/01/11 03:38:11;;;;;;;36.33;20.50;;;-2.90;97.30;;;;;;5075024;28;20468;-60
2024/01/11 03:40:38;;;;;;;44.50;21.13;;;-2.90;97.30;;;;;;5075776;28;20437;-60
2024/01/11 03:43:05;;;;;;;34.57;19.70;;;-2.90;97.10;;;;;;5074996;28;20444;-60
2024/01/11 03:45:32;;;;;;;35.10;20.17;;;-2.90;97.10;;;;;;5074970;28;20451;-60
2024/01/11 03:47:58;;;;;;;35.47;21.83;;;-2.90;97.10;;;;;;5074632;28;20815;-60
2024/01/11 03:50:26;;;;;;;34.07;21.20;;;-2.90;97.10;;;;;;5074776;28;20818;-60
2024/01/11 03:52:53;;;;;;;40.93;21.77;;;-2.90;97.00;;;;;;5074748;28;20441;-59
2024/01/11 03:55:20;;;;;;;46.13;20.47;;;-2.90;97.00;;;;;;5074357;28;20476;-59
2024/01/11 03:57:47;;;;;;;30.83;20.30;;;-3.00;96.80;;;;;;5074701;28;20449;-60
2024/01/11 04:00:15;;;;;;;36.23;21.17;;;-3.00;96.80;;;;;;5074613;28;20519;-60
2024/01/11 04:02:41;;;;;;;41.23;20.63;;;-3.00;96.90;;;;;;5074595;28;20440;-59
2024/01/11 04:05:09;;;;;;;35.27;20.60;;;-3.00;96.90;;;;;;5074597;28;20448;-60
2024/01/11 04:07:37;;;;;;;40.63;22.17;;;-3.00;96.90;;;;;;5074195;28;20935;-59
2024/01/11 04:10:04;;;;;;;39.07;20.30;;;-3.00;96.90;;;;;;5074337;28;20444;-61
2024/01/11 04:12:31;;;;;;;38.73;19.77;;;-3.00;96.90;;;;;;5074273;28;20448;-60
2024/01/11 04:14:57;;;;;;;35.80;19.30;;;-3.10;96.90;;;;;;5074373;28;20447;-60
2024/01/11 04:17:24;;;;;;;37.50;20.40;;;-3.10;96.90;;;;;;5074220;28;20484;-60
2024/01/11 04:19:50;;;;;;;36.97;21.33;;;-3.00;96.90;;;;;;5074176;28;20468;-59
2024/01/11 04:22:17;;;;;;;38.10;20.00;;;-3.10;96.90;;;;;;5074251;28;20437;-59
2024/01/11 04:24:45;;;;;;;31.97;20.00;;;-3.10;97.00;;;;;;5074162;28;20441;-59
2024/01/11 04:27:12;;;;;;;36.00;21.10;;;-3.10;97.00;;;;;;5073776;28;20985;-59
2024/01/11 04:29:39;;;;;;;39.43;21.77;;;-3.10;97.10;;;;;;5073435;28;20496;-60
2024/01/11 04:32:06;;;;;;;33.47;20.10;;;-3.10;97.20;;;;;;5074044;28;20449;-59
2024/01/11 04:34:33;;;;;;;39.30;22.23;;;-3.20;97.20;;;;;;5074183;28;20820;-60
2024/01/11 04:36:59;;;;;;;44.10;22.07;;;-3.20;97.20;;;;;;5074029;28;20477;-60
2024/01/11 04:39:26;;;;;;;38.37;22.50;;;-3.20;97.10;;;;;;5073761;28;20468;-59
2024/01/11 04:41:54;;;;;;;39.43;20.67;;;-3.30;97.10;;;;;;5073753;28;20946;-59
2024/01/11 04:44:21;;;;;;;36.27;21.13;;;-3.20;97.10;;;;;;5073853;28;20448;-60
2024/01/11 04:46:47;;;;;;;42.90;22.90;;;-3.20;97.20;;;;;;5073922;28;20445;-59
2024/01/11 04:49:14;;;;;;;43.30;23.60;;;-3.20;97.30;;;;;;5073733;28;20464;-60
2024/01/11 04:51:41;;;;;;;41.80;24.37;;;-3.20;97.50;;;;;;5074883;28;20444;-59
2024/01/11 04:54:07;;;;;;;45.77;22.10;;;-3.20;97.60;;;;;;5075036;28;20448;-59
2024/01/11 04:56:34;;;;;;;42.80;24.97;;;-3.20;97.60;;;;;;5074352;28;20476;-59
2024/01/11 04:59:02;;;;;;;45.93;23.93;;;-3.20;97.80;;;;;;5073972;28;20461;-60
2024/01/11 05:01:29;;;;;;;48.07;26.13;;;-3.20;97.80;;;;;;5073954;28;20433;-59
2024/01/11 05:03:55;;;;;;;46.33;25.00;;;-3.20;97.70;;;;;;5073790;28;20441;-59
2024/01/11 05:06:24;;;;;;;46.60;25.27;;;-3.10;97.80;;;;;;5073310;28;20923;-59
2024/01/11 05:08:52;;;;;;;45.13;24.90;;;-3.10;97.80;;;;;;5073588;28;20472;-60
2024/01/11 05:11:19;;;;;;;46.40;25.73;;;-3.20;97.90;;;;;;5073302;28;20436;-59
2024/01/11 05:13:47;;;;;;;50.57;26.83;;;-3.20;98.10;;;;;;5073576;28;20449;-59
2024/01/11 05:16:20;;;;;;;49.47;24.97;;;-3.20;98.30;;;;;;5073339;28;20499;-59
2024/01/11 05:18:47;;;;;;;53.30;27.83;;;-3.20;98.30;;;;;;5073043;28;20848;-59
2024/01/11 05:21:14;;;;;;;53.17;29.13;;;-3.20;98.40;;;;;;5072990;28;20939;-59
2024/01/11 05:23:41;;;;;;;56.63;27.50;;;-3.20;98.50;;;;;;5073389;28;20441;-59
2024/01/11 05:26:08;;;;;;;51.67;26.97;;;-3.20;98.60;;;;;;5073220;28;20451;-59
2024/01/11 05:28:34;;;;;;;49.83;27.60;;;-3.20;98.70;;;;;;5073293;28;20460;-59
2024/01/11 05:31:01;;;;;;;53.33;26.50;;;-3.20;98.70;;;;;;5072873;28;20448;-59
2024/01/11 05:33:29;;;;;;;54.17;27.57;;;-3.20;98.80;;;;;;5073316;28;20447;-59
2024/01/11 05:35:56;;;;;;;55.07;26.07;;;-3.20;98.80;;;;;;5072749;28;21009;-59
2024/01/11 05:38:23;;;;;;;44.27;26.83;;;-3.20;98.80;;;;;;5073207;28;20475;-59
2024/01/11 05:40:49;;;;;;;48.97;27.77;;;-3.10;98.80;;;;;;5075185;28;20444;-59
2024/01/11 05:43:16;;;;;;;47.27;26.13;;;-3.10;98.80;;;;;;5077342;28;20444;-59
2024/01/11 05:45:43;;;;;;;42.37;26.80;;;-3.10;98.80;;;;;;5077281;28;20440;-59
2024/01/11 05:48:11;;;;;;;49.93;27.07;;;-3.10;98.80;;;;;;5077148;28;20468;-60
2024/01/11 05:50:39;;;;;;;49.70;27.87;;;-3.10;98.80;;;;;;5077103;28;20445;-59
2024/01/11 05:53:06;;;;;;;48.50;27.40;;;-3.20;98.60;;;;;;5077061;28;20814;-59
2024/01/11 05:55:33;;;;;;;51.33;28.20;;;-3.20;98.50;;;;;;5077101;28;20452;-59
2024/01/11 05:58:00;;;;;;;47.50;27.83;;;-3.20;98.60;;;;;;5077005;28;20491;-59
2024/01/11 06:00:26;;;;;;;48.03;27.10;;;-3.20;98.70;;;;;;5077140;28;20441;-60
2024/01/11 06:02:53;;;;;;;50.37;26.50;;;-3.20;98.80;;;;;;5077085;28;20437;-59
2024/01/11 06:05:20;;;;;;;45.53;26.70;;;-3.20;98.80;;;;;;5076961;28;20448;-59
2024/01/11 06:07:48;;;;;;;44.03;26.47;;;-3.20;98.80;;;;;;5076782;28;20520;-59
2024/01/11 06:10:15;;;;;;;44.93;26.63;;;-3.20;98.70;;;;;;5076793;28;20444;-59
2024/01/11 06:12:42;;;;;;;43.73;25.33;;;-3.20;98.60;;;;;;5076561;28;20476;-59
2024/01/11 06:15:09;;;;;;;49.67;27.53;;;-3.20;98.60;;;;;;5077034;28;21018;-59
2024/01/11 06:17:36;;;;;;;44.23;27.00;;;-3.30;98.50;;;;;;5077320;28;20827;-59
2024/01/11 06:20:03;;;;;;;44.67;26.90;;;-3.30;98.60;;;;;;5076748;28;20472;-59
2024/01/11 06:22:30;;;;;;;50.03;26.63;;;-3.30;98.50;;;;;;5076246;28;20448;-59
2024/01/11 06:24:59;;;;;;;44.50;27.00;;;-3.30;98.40;;;;;;5076285;28;20931;-59
2024/01/11 06:27:26;;;;;;;48.50;27.87;;;-3.30;98.50;;;;;;5076652;28;20444;-60
2024/01/11 06:29:53;;;;;;;47.57;26.33;;;-3.30;98.50;;;;;;5076510;28;20470;-59
2024/01/11 06:32:19;;;;;;;51.90;29.13;;;-3.30;98.50;;;;;;5076257;28;20454;-59
2024/01/11 06:34:47;;;;;;;56.50;27.90;;;-3.30;98.40;;;;;;5076304;28;20480;-59
2024/01/11 06:37:14;;;;;;;50.17;27.60;;;-3.30;98.50;;;;;;5076378;28;20476;-59
2024/01/11 06:39:40;;;;;;;46.87;26.90;;;-3.30;98.50;;;;;;5076318;28;20464;-59
2024/01/11 06:42:08;;;;;;;47.67;28.60;;;-3.30;98.50;;;;;;5076363;28;20487;-59
2024/01/11 06:44:35;;;;;;;53.17;28.67;;;-3.30;98.50;;;;;;5076321;28;20552;-60
2024/01/11 06:47:03;;;;;;;56.40;30.23;;;-3.30;98.50;;;;;;5076095;28;20437;-59
2024/01/11 06:49:30;;;;;;;50.70;26.83;;;-3.30;98.50;;;;;;5075863;28;20464;-59
2024/01/11 06:51:57;;;;;;;44.53;26.40;;;-3.40;98.60;;;;;;5075624;28;20448;-59
2024/01/11 06:54:23;;;;;;;49.67;27.00;;;-3.30;98.90;;;;;;5075551;28;20436;-60
2024/01/11 06:56:50;;;;;;;56.73;27.73;;;-3.30;98.90;;;;;;5075409;28;20949;-59
2024/01/11 06:59:18;;;;;;;51.60;28.90;;;-3.30;98.90;;;;;;5075357;28;21005;-59
2024/01/11 07:01:45;;;;;;;51.17;28.70;;;-3.30;98.90;;;;;;5075674;28;20455;-59
2024/01/11 07:04:12;;;;;;;61.10;27.07;;;-3.40;98.70;;;;;;5075443;28;21051;-59
2024/01/11 07:06:38;;;;;;;43.27;27.17;;;-3.30;98.80;;;;;;5075754;28;20441;-59
2024/01/11 07:09:05;;;;;;;54.73;27.53;;;-3.30;98.70;;;;;;5075254;28;20974;-59
2024/01/11 07:11:33;;;;;;;42.60;26.07;;;-3.30;98.60;;;;;;5075470;28;20452;-59
2024/01/11 07:13:59;;;;;;;44.87;26.93;;;-3.30;98.50;;;;;;5075189;28;20955;-59
2024/01/11 07:16:27;;;;;;;48.83;27.27;;;-3.40;98.50;;;;;;5075226;28;20480;-59
2024/01/11 07:18:54;;;;;;;43.50;26.33;;;-3.40;98.40;;;;;;5075282;28;20463;-59
2024/01/11 07:21:29;;;;;;;49.10;28.13;;;-3.30;98.40;;;;;;5075054;28;20437;-59
2024/01/11 07:23:56;;;;;;;51.00;28.70;;;-3.40;98.20;;;;;;5075375;28;20478;-58
2024/01/11 07:26:23;;;;;;;52.40;28.23;;;-3.40;98.10;;;;;;5075019;28;20484;-58
2024/01/11 07:28:50;;;;;;;53.33;26.97;;;-3.40;98.20;;;;;;5075232;28;20496;-59
2024/01/11 07:31:17;;;;;;;51.10;27.37;;;-3.40;98.20;;;;;;5075223;28;20460;-59
2024/01/11 07:33:45;;;;;;;52.40;28.60;;;-3.40;98.20;;;;;;5074719;28;20954;-59
2024/01/11 07:36:12;;;;;;;52.30;27.03;;;-3.40;98.10;;;;;;5074626;28;20459;-59
2024/01/11 07:38:39;;;;;;;47.60;25.87;;;-3.40;98.00;;;;;;5075049;28;20526;-59
2024/01/11 07:41:06;;;;;;;42.03;26.07;;;-3.50;97.80;;;;;;5074904;28;20447;-59
2024/01/11 07:43:35;;;;;;;54.37;26.93;;;-3.50;97.90;;;;;;5074890;28;20447;-59
2024/01/11 07:46:02;;;;;;;49.43;27.63;;;-3.50;98.10;;;;;;5074901;28;20478;-59
2024/01/11 07:48:28;;;;;;;47.23;27.47;;;-3.50;98.10;;;;;;5074718;28;20463;-59
2024/01/11 07:50:56;;;;;;;53.20;27.67;;;-3.50;98.20;;;;;;5074452;28;20453;-59
2024/01/11 07:53:24;;;;;;;45.70;26.97;;;-3.50;98.30;;;;;;5074625;28;20445;-59
2024/01/11 07:55:51;;;;;;;50.90;27.17;;;-3.50;98.30;;;;;;5074637;28;20859;-59
2024/01/11 07:58:17;;;;;;;48.57;27.53;;;-3.50;98.30;;;;;;5074301;28;21055;-59
2024/01/11 08:00:44;;;;;;;47.07;26.83;;;-3.50;98.20;;;;;;5075168;28;20440;-59
2024/01/11 08:03:11;;;;;;;50.27;29.73;;;-3.50;98.30;;;;;;5074279;28;20547;-59
2024/01/11 08:05:38;;;;;;;51.37;27.40;;;-3.50;98.30;;;;;;5074331;28;20950;-59
2024/01/11 08:08:06;;;;;;;44.20;28.20;;;-3.40;98.50;;;;;;5074157;28;20845;-59
2024/01/11 08:10:33;;;;;;;48.40;27.60;;;-3.40;98.60;;;;;;5074478;28;20455;-59
2024/01/11 08:13:00;;;;;;;54.17;29.87;;;-3.40;98.80;;;;;;5074246;28;20451;-59
2024/01/11 08:15:27;;;;;;;49.97;28.00;;;-3.30;98.90;;;;;;5074068;28;20930;-59
2024/01/11 08:17:54;;;;;;;51.60;29.43;;;-3.30;98.80;;;;;;5074189;28;20499;-59
2024/01/11 08:20:21;;;;;;;51.97;28.20;;;-3.30;98.80;;;;;;5073886;28;20848;-59
2024/01/11 08:22:47;;;;;;;54.70;29.40;;;-3.30;98.90;;;;;;5073906;28;20811;-59
2024/01/11 08:25:16;;;;;;;46.30;23.90;;;-3.30;99.00;;;;;;5074342;28;20441;-58
2024/01/11 08:27:42;;;;;;;57.93;30.20;;;-3.30;99.10;;;;;;5074034;28;20441;-59
2024/01/11 08:30:09;;;;;;;53.50;26.80;;;-3.20;99.20;;;;;;5073793;28;20506;-59
2024/01/11 08:32:39;;;;;;;53.90;29.93;;;-3.20;99.10;;;;;;5074118;28;20448;-59
2024/01/11 08:35:08;;;;;;;49.27;28.83;;;-3.20;99.10;;;;;;5073846;28;20551;-59
2024/01/11 08:37:35;;;;;;;51.43;27.60;;;-3.10;99.10;;;;;;5074077;28;20461;-59
2024/01/11 08:40:04;;;;;;;50.00;29.00;;;-3.10;99.10;;;;;;5073756;28;20464;-58
2024/01/11 08:42:32;;;;;;;48.37;28.33;;;-3.10;99.20;;;;;;5073880;28;20894;-59
2024/01/11 08:45:03;;;;;;;55.23;30.07;;;-3.10;99.10;;;;;;5074055;28;20514;-59
2024/01/11 08:47:30;;;;;;;50.83;28.00;;;-3.10;99.20;;;;;;5073798;28;20425;-59
2024/01/11 08:49:57;;;;;;;48.87;28.03;;;-3.10;99.40;;;;;;5073667;28;20468;-58
2024/01/11 08:52:24;;;;;;;47.87;26.97;;;-3.00;99.50;;;;;;5073540;28;20466;-58
2024/01/11 08:54:50;;;;;;;52.30;29.87;;;-3.00;99.70;;;;;;5073621;28;20475;-59
2024/01/11 08:57:17;;;;;;;59.40;29.00;;;-3.00;99.80;;;;;;5073467;28;20480;-59
2024/01/11 08:59:45;;;;;;;52.83;29.87;;;-2.90;99.90;;;;;;5073440;28;20467;-59
2024/01/11 09:02:12;;;;;;;51.33;29.10;;;-2.90;99.90;;;;;;5073509;28;20444;-59
2024/01/11 09:04:38;;;;;;;58.20;32.40;;;-2.90;99.90;;;;;;5073871;28;20536;-59
2024/01/11 09:07:05;;;;;;;51.00;30.60;;;-2.80;99.90;;;;;;5073511;28;20444;-59
2024/01/11 09:09:32;;;;;;;58.10;30.83;;;-2.80;99.90;;;;;;5073330;28;20479;-59
2024/01/11 09:11:58;;;;;;;52.77;29.20;;;-2.80;99.90;;;;;;5073337;28;20479;-59
2024/01/11 09:14:25;;;;;;;51.67;28.87;;;-2.70;99.90;;;;;;5072704;28;20451;-59
2024/01/11 09:16:53;;;;;;;53.80;30.10;;;-2.70;99.90;;;;;;5073021;28;20849;-59
2024/01/11 09:19:20;;;;;;;61.53;30.70;;;-2.70;99.90;;;;;;5073160;28;20480;-59
2024/01/11 09:21:46;;;;;;;54.73;30.70;;;-2.60;99.90;;;;;;5073178;28;20445;-59
2024/01/11 09:24:13;;;;;;;56.50;32.33;;;-2.60;99.90;;;;;;5073324;28;20448;-59
2024/01/11 09:26:40;;;;;;;58.43;31.87;;;-2.50;99.90;;;;;;5073244;28;20447;-59
2024/01/11 09:29:06;;;;;;;55.10;31.23;;;-2.40;99.90;;;;;;5073428;28;20840;-59
2024/01/11 09:31:33;;;;;;;53.23;30.73;;;-2.40;99.90;;;;;;5073115;28;20441;-59
2024/01/11 09:34:01;;;;;;;64.00;33.07;;;-2.40;99.90;;;;;;5072726;28;20814;-59
2024/01/11 09:36:28;;;;;;;66.90;31.40;;;-2.30;99.90;;;;;;5072841;28;20460;-59
2024/01/11 09:38:55;;;;;;;55.10;30.87;;;-2.30;99.90;;;;;;5072981;28;20488;-59
2024/01/11 09:41:23;;;;;;;55.17;31.23;;;-2.20;99.90;;;;;;5073140;28;20437;-59
2024/01/11 09:43:55;;;;;;;58.40;33.40;;;-2.20;99.90;;;;;;5073058;28;20522;-60
2024/01/11 09:46:22;;;;;;;58.63;34.00;;;-2.20;99.90;;;;;;5072897;28;20421;-60
2024/01/11 09:48:50;;;;;;;55.30;30.77;;;-2.00;99.90;;;;;;5072975;28;20487;-60
2024/01/11 09:51:18;;;;;;;58.87;33.40;;;-2.00;99.90;;;;;;5073019;28;20449;-59
2024/01/11 09:53:45;;;;;;;54.40;32.20;;;-1.90;99.90;;;;;;5072612;28;20812;-60
2024/01/11 09:56:12;;;;;;;57.40;32.60;;;-1.90;99.90;;;;;;5072626;28;20447;-60
2024/01/11 09:58:45;;;;;;;61.73;33.73;;;-1.80;99.90;;;;;;5072015;28;20488;-60
2024/01/11 10:01:13;;;;;;;58.40;30.87;;;-1.70;99.90;;;;;;5072564;28;20454;-60
2024/01/11 10:03:40;;;;;;;52.50;31.80;;;-1.60;99.90;;;;;;5072910;28;20437;-60
2024/01/11 10:06:09;;;;;;;51.67;30.67;;;-1.60;99.90;;;;;;5072087;28;20450;-61
2024/01/11 10:08:37;;;;;;;58.30;32.17;;;-1.50;99.90;;;;;;5072250;28;20457;-60
2024/01/11 10:11:04;;;;;;;61.00;31.27;;;-1.40;99.90;;;;;;5072828;28;20445;-60
2024/01/11 10:13:32;;;;;;;58.20;32.20;;;-1.30;99.90;;;;;;5072763;28;20467;-60
2024/01/11 10:16:10;;;;;;;68.20;33.60;;;-1.20;99.90;;;;;;5072762;28;20465;-60
2024/01/11 10:18:37;;;;;;;55.63;32.33;;;-1.20;99.90;;;;;;5073299;28;20513;-60
2024/01/11 10:21:05;;;;;;;52.07;31.40;;;-1.10;99.90;;;;;;5072420;28;20449;-61
2024/01/11 10:23:34;;;;;;;65.50;32.53;;;-1.10;99.90;;;;;;5072783;28;20498;-61
2024/01/11 10:26:02;;;;;;;50.33;31.80;;;-1.00;99.90;;;;;;5073095;28;20463;-60
2024/01/11 10:28:29;;;;;;;57.07;29.80;;;-0.90;99.90;;;;;;5075962;28;20973;-60
2024/01/11 10:30:56;;;;;;;51.07;31.30;;;-0.90;99.80;;;;;;5076354;28;20518;-60
2024/01/11 10:33:23;;;;;;;52.33;30.30;;;-0.80;99.80;;;;;;5076218;28;20443;-61
2024/01/11 10:35:50;;;;;;;51.50;31.47;;;-0.70;99.80;;;;;;5076089;28;20445;-61
2024/01/11 10:38:18;;;;;;;49.33;30.77;;;-0.60;99.70;;;;;;5075865;28;20994;-61
2024/01/11 10:40:45;;;;;;;53.03;30.47;;;-0.50;99.60;;;;;;5076150;28;20452;-61
2024/01/11 10:43:19;;;;;;;60.23;32.03;;;-0.40;99.50;;;;;;5076230;28;20440;-61
2024/01/11 10:45:48;;;;;;;55.53;33.60;;;-0.30;99.40;;;;;;5076187;28;20432;-61
2024/01/11 10:48:16;;;;;;;51.17;30.20;;;-0.20;99.30;;;;;;5075826;28;20882;-61
2024/01/11 10:50:44;;;;;;;55.80;34.67;;;-0.10;99.20;;;;;;5075792;28;21006;-61
2024/01/11 10:53:26;;;;;;;58.27;32.10;;;0.10;99.10;;;;;;5075960;28;20502;-62
2024/01/11 10:55:56;;;;;;;60.00;30.60;;;0.20;99.00;;;;;;5075688;28;20457;-62
2024/01/11 10:58:26;;;;;;;55.87;32.07;;;0.30;98.90;;;;;;5075814;28;21005;-62
2024/01/11 11:00:55;;;;;;;56.27;32.63;;;0.50;98.40;;;;;;5075951;28;20836;-62
2024/01/11 11:03:25;;;;;;;47.70;30.73;;;0.50;98.20;;;;;;5076729;28;20514;-64
2024/01/11 11:05:56;;;;;;;56.73;33.27;;;0.70;98.50;;;;;;5075861;28;20476;-63
2024/01/11 11:08:24;;;;;;;52.33;32.33;;;0.80;98.60;;;;;;5076034;28;20453;-63
2024/01/11 11:10:55;;;;;;;50.73;32.77;;;1.00;98.20;;;;;;5076174;28;20457;-63
2024/01/11 11:13:24;;;;;;;54.77;32.07;;;1.20;97.60;;;;;;5075980;28;20436;-63
2024/01/11 11:15:51;;;;;;;49.70;31.57;;;1.30;96.90;;;;;;5075762;28;20495;-63
2024/01/11 11:18:19;;;;;;;54.27;30.60;;;1.60;96.90;;;;;;5075631;28;20492;-63
2024/01/11 11:20:46;;;;;;;56.37;32.07;;;1.80;96.80;;;;;;5075745;28;20469;-62
2024/01/11 11:23:17;;;;;;;47.43;31.57;;;2.10;96.00;;;;;;5075449;28;20449;-63
2024/01/11 11:25:46;;;;;;;52.37;29.73;;;2.30;94.90;;;;;;5075430;28;20433;-63
2024/01/11 11:28:13;;;;;;;57.60;30.60;;;2.60;94.20;;;;;;5075333;28;20566;-64
2024/01/11 11:30:42;;;;;;;48.17;31.23;;;2.90;93.30;;;;;;5075045;28;20964;-63
2024/01/11 11:33:10;;;;;;;52.53;32.20;;;3.20;91.80;;;;;;5075248;28;20456;-63
2024/01/11 11:35:37;;;;;;;54.97;30.50;;;3.40;90.90;;;;;;5074869;28;20506;-64
2024/01/11 11:38:05;;;;;;;45.13;29.50;;;3.70;90.70;;;;;;5074039;28;20484;-64
2024/01/11 11:40:39;;;;;;;50.10;30.90;;;4.00;90.20;;;;;;5075206;28;20507;-65
2024/01/11 11:43:06;;;;;;;45.23;29.80;;;4.30;87.90;;;;;;5075183;28;20456;-65
2024/01/11 11:45:33;;;;;;;51.50;30.63;;;4.60;86.80;;;;;;5075266;28;20460;-65
2024/01/11 11:48:01;;;;;;;47.27;30.57;;;4.80;84.60;;;;;;5074840;28;20440;-66
2024/01/11 11:50:31;;;;;;;43.67;28.70;;;5.00;82.70;;;;;;5074946;28;20838;-66
2024/01/11 11:52:58;;;;;;;46.63;29.60;;;5.20;80.70;;;;;;5074700;28;20456;-66
2024/01/11 11:55:26;;;;;;;50.50;31.47;;;5.30;78.20;;;;;;5075356;28;20810;-67
2024/01/11 11:57:53;;;;;;;47.00;30.77;;;5.50;77.70;;;;;;5074726;28;20472;-67
2024/01/11 12:00:21;;;;;;;47.43;29.20;;;5.70;76.30;;;;;;5074749;28;20445;-67
2024/01/11 12:02:48;;;;;;;44.77;29.43;;;5.90;73.50;;;;;;5074390;28;20939;-67
2024/01/11 12:05:18;;;;;;;43.10;28.40;;;6.10;72.30;;;;;;5074730;28;20440;-67
2024/01/11 12:07:45;;;;;;;43.47;28.17;;;6.30;71.20;;;;;;5074489;28;20801;-67
2024/01/11 12:10:15;;;;;;;40.63;27.90;;;6.50;69.80;;;;;;5074209;28;20527;-67
2024/01/11 12:12:42;;;;;;;41.33;28.73;;;6.80;69.50;;;;;;5074977;28;20452;-67
2024/01/11 12:15:09;;;;;;;42.30;28.90;;;7.10;68.60;;;;;;5074428;28;20452;-67
2024/01/11 12:17:38;;;;;;;42.83;29.53;;;7.30;65.00;;;;;;5074112;28;20498;-66
2024/01/11 12:20:06;;;;;;;49.67;31.10;;;7.50;62.30;;;;;;5074207;28;20506;-66
2024/01/11 12:22:34;;;;;;;43.43;32.07;;;7.80;60.70;;;;;;5074342;28;20440;-66
2024/01/11 12:25:02;;;;;;;42.53;31.43;;;7.90;58.50;;;;;;5074204;28;20447;-66
2024/01/11 12:27:29;;;;;;;53.37;29.80;;;8.10;57.40;;;;;;5074253;28;20448;-66
2024/01/11 12:29:56;;;;;;;39.50;28.23;;;8.20;55.80;;;;;;5074130;28;20483;-66